Abnaki, Vermont
Current Conditions -  °F | °C
As of 10:55 PM on Friday 28 Nov 2014 (Local Time) from KFSO Reporting Station
Clear Clear  
Wind Chill: 18°   Ceiling: Unl
Heat Index: 18°   Visibility: 10mi
Dew Point: 12°   Wind: 0mph
Humidity: 77%   Direction: NA
Pressure: 30.2"   Gusts: NA
Location:  44.841°N, 73.2779°W
Report Text: KFSO 290355Z AUTO 00000KT 10SM CLR M08/M11 A3020 RMK AO2 T10781112
Loading
Personal Weather Stations






























Interactive Weather Map New forecast layout! Learn more

10-Day Weather Forecast

Advertisements
Track Severe Weather on mobile